Aérodrome :
LOGIN :

S'inscrire | Disclaimer

   EN    FR    IT 

 










Légende :    VFR   VFR Marginal   IFR   IFR Intensif   IFR Très Intensif
Visi : 
Plafond : 
>= 8 km
>= 3000ft
5 à 8 km
1000 à 3000 ft
1500m à 5 km
500 à 1000 ft
800 à 1500m
200 à 500 ft
< 800m
< 200 ft
Symboles :   Orages  Brouillard  Fortes neiges  Fortes précipitations  Vent > 20 kt
SIGMETs :   Divers  Orages  Givrage  Turbulence  Onde Orograph.  Cendres Volcan.







- Altitude de l'aérodrome : 1504 ft
- Code IATA : PNA


LEPP - Noain Pamplona

DERNIER METAR :
  • 221830Z 36007KT CAVOK 24/14 Q1025

METARs EXPIRÉS :
  • 221800Z 01009KT CAVOK 25/14 Q1024
  • 221730Z 01009KT 340V040 CAVOK 26/14 Q1024
  • 221700Z 35012KT CAVOK 27/13 Q1024
  • 221630Z 35012KT CAVOK 28/13 Q1024
  • 221600Z 36011KT CAVOK 29/13 Q1024

TAF TAF LEPP
Valide du 22 à 15h jusqu'au 23 à 15h UTC


221400Z 2215/2315 VRB05KT CAVOK TX32/2215Z TN14/2306Z
PROB30
TEMPO 2215/2218 36010KT
Pas de NOTAMs connus pour ce terrain.



MET'MAP, la Météo Aéronautique d'un coup d'oeil ! - Copyright ORBIFLY Décembre 2007 - Disclaimer

ORBIFLY MET'MAP TEAM :

Programmation & Développement : Alexandra Zaïnal
Conception & Développement : Baudouin d'Aumeries
Co-Programmation & Développement : Marc-Olivier Méhu
Soutien technique & logistique : Manuel Goepfert

Contact : metmap@orbifly.com




SOURCES & CREDITS :

   NOAA